Latest Weather Observations for Mount Gambier

IDS60801

Issued at 11:35 pm CST Tuesday 23 September 2014 (issued every 30 minutes, with the page automatically refreshed every 10 minutes)

About weather observations | Map of weather stations | Latest weather observations for SA | Other Formats
Station Details ID: 026021 Name: MOUNT GAMBIER AERO Lat: -37.75 Lon: 140.77 Height: 63.0 m
Data from the previous 72 hours. | See also: Recent months at Mount Gambier
Date/Time
CST
Temp
°C
App
Temp
°C
Dew
Point
Rel
Hum
%
Delta-T
°C
Wind Press
QNH
hPa
Press
MSL
hPa
Rain
since 9 am
mm
Dir
 
Spd
km/h
Gust
km/h
Spd
kts
Gust
kts
23/11:30pm 13.4 12.1 12.5 94 0.5 ENE 11 15 6 8 1017.0 - 1.0
23/11:00pm 13.5 13.2 12.6 94 0.5 ESE 6 7 3 4 1017.2 - 1.0
23/10:30pm 13.6 13.2 12.5 93 0.6 NNW 6 13 3 7 1017.9 - 1.0
23/10:00pm 14.3 14.8 12.7 90 0.9 WSW 2 7 1 4 1017.7 - 1.0
23/09:50pm 14.5 14.0 12.7 89 1.0 WNW 7 11 4 6 1017.9 - 1.0
23/09:33pm 15.0 12.8 12.2 83 1.5 NW 15 22 8 12 1018.4 - 1.0
23/09:30pm 15.0 13.2 12.2 83 1.5 NW 13 19 7 10 1018.9 - 0.8
23/09:00pm 14.8 14.3 12.6 87 1.2 SSW 7 17 4 9 1018.3 1018.4 0.4
23/08:30pm 15.2 12.4 12.7 85 1.4 W 19 20 10 11 1018.8 - 0.2
23/08:00pm 16.2 13.2 12.0 76 2.3 NW 19 22 10 12 1019.4 - 0.0
23/07:33pm 16.8 11.2 10.2 65 3.5 NNW 30 43 16 23 1019.1 - 0.0
23/07:30pm 15.3 14.3 10.4 72 2.6 SSE 6 13 3 7 1018.6 - 0.0
23/07:00pm 16.0 14.9 10.1 68 3.1 SSE 6 9 3 5 1017.7 - 0.0
23/06:30pm 16.1 13.6 11.1 72 2.7 SSE 15 15 8 8 1017.5 - 0.0
23/06:00pm 17.9 15.4 12.3 70 3.1 SE 17 19 9 10 1017.6 1017.7 0.0
23/05:30pm 20.6 18.6 11.6 56 5.0 ESE 13 15 7 8 1017.9 - 0.0
23/05:00pm 21.8 19.4 10.2 47 6.3 E 13 17 7 9 1018.1 - 0.0
23/04:30pm 23.0 21.1 10.5 45 6.9 E 11 13 6 7 1018.3 - 0.0
23/04:00pm 23.6 20.6 7.9 36 8.3 NNE 13 17 7 9 1018.5 - 0.0
23/03:30pm 24.2 20.4 6.0 31 9.3 N 15 20 8 11 1018.7 - 0.0
23/03:00pm 24.0 20.0 6.6 32 9.0 N 17 20 9 11 1018.9 1019.0 0.0
23/02:30pm 23.3 18.4 7.1 35 8.4 N 22 32 12 17 1019.3 - 0.0
23/02:00pm 24.4 19.4 6.4 31 9.3 N 22 37 12 20 1019.6 - 0.0
23/01:30pm 24.4 21.6 6.9 32 9.1 N 11 20 6 11 1020.0 - 0.0
23/01:00pm 24.2 19.7 8.5 36 8.4 NNW 22 28 12 15 1020.5 - 0.0
23/12:30pm 23.5 19.4 7.9 36 8.2 N 19 30 10 16 1020.9 - 0.0
23/12:00pm 23.0 18.7 7.7 37 8.0 N 20 32 11 17 1021.6 1021.7 0.0
23/11:30am 22.5 18.8 8.0 39 7.6 N 17 28 9 15 1021.9 - 0.0
23/11:00am 22.1 18.5 8.2 41 7.3 N 17 24 9 13 1022.3 - 0.0
23/10:30am 21.6 17.3 7.7 40 7.2 N 20 30 11 16 1022.7 - 0.0
23/10:00am 21.2 16.7 6.0 37 7.6 N 19 26 10 14 1022.9 - 0.0
23/09:30am 19.6 14.4 3.8 35 7.5 N 20 24 11 13 1023.1 - 0.0
23/09:00am 18.1 12.5 3.2 37 6.9 N 22 28 12 15 1023.2 1023.3 0.0
23/08:30am 16.6 11.9 3.3 41 6.1 NNE 17 20 9 11 1023.3 - 0.0
23/08:00am 14.5 9.8 3.2 46 5.1 NNE 17 24 9 13 1023.4 - 0.0
23/07:30am 13.3 8.8 2.0 46 4.9 NNE 15 19 8 10 1023.3 - 0.0
23/07:00am 11.9 7.3 1.8 50 4.3 NNE 15 19 8 10 1023.2 - 0.0
23/06:30am 10.2 6.8 1.6 55 3.6 NE 9 15 5 8 1023.0 - 0.0
23/06:00am 10.4 6.4 0.6 50 4.0 NE 11 13 6 7 1022.9 1023.0 0.0
23/05:30am 9.4 5.2 1.4 57 3.3 NE 13 15 7 8 1022.6 - 0.0
23/05:00am 10.7 6.4 0.7 50 4.1 NNE 13 15 7 8 1022.5 - 0.0
23/04:30am 9.8 5.8 0.7 53 3.7 NNE 11 13 6 7 1022.5 - 0.0
23/04:00am 10.0 5.7 0.7 52 3.8 NNE 13 17 7 9 1022.4 - 0.0
23/03:30am 11.2 6.9 1.1 50 4.2 NNE 13 15 7 8 1022.3 - 0.0
23/03:00am 12.0 7.6 0.1 44 4.9 NNE 13 17 7 9 1022.3 1022.4 0.0
23/02:30am 12.3 7.0 -0.5 41 5.2 N 17 22 9 12 1022.4 - 0.0
23/02:00am 12.6 6.9 -0.7 40 5.4 N 19 24 10 13 1022.6 - 0.0
23/01:30am 12.8 7.1 -0.4 40 5.4 NNE 19 26 10 14 1022.7 - 0.0
23/01:00am 11.6 6.9 0.8 47 4.5 NNE 15 19 8 10 1023.0 - 0.0
23/12:30am 12.3 6.9 1.2 46 4.7 NE 19 24 10 13 1023.2 - 0.0
23/12:00am 12.1 7.2 2.1 50 4.3 NE 17 19 9 10 1023.4 1023.5 0.0
 
Date/Time
CST
Temp
°C
App
Temp
°C
Dew
Point
Rel
Hum
%
Delta-T
°C
Wind Press
QNH
hPa
Press
MSL
hPa
Rain
since 9 am
mm
Dir
 
Spd
km/h
Gust
km/h
Spd
kts
Gust
kts
22/11:30pm 11.7 7.9 3.8 58 3.5 NNE 13 13 7 7 1023.5 - 0.0
22/11:00pm 11.4 8.0 4.0 60 3.3 NE 11 11 6 6 1023.8 - 0.0
22/10:30pm 11.4 8.5 4.5 62 3.1 NNE 9 11 5 6 1024.1 - 0.0
22/10:00pm 10.5 7.6 4.5 66 2.7 NNE 9 11 5 6 1024.4 - 0.0
22/09:30pm 10.7 7.4 4.7 66 2.7 NNE 11 11 6 6 1024.6 - 0.0
22/09:00pm 11.9 9.0 4.9 62 3.2 NE 9 9 5 5 1024.7 1024.8 0.0
22/08:30pm 12.1 9.8 5.6 64 3.0 E 7 7 4 4 1024.6 - 0.0
22/08:00pm 12.0 11.2 6.5 69 2.6 CALM 0 0 0 0 1024.7 - 0.0
22/07:30pm 12.8 11.6 6.3 64 3.1 SSE 2 6 1 3 1024.8 - 0.0
22/07:00pm 13.1 10.1 6.1 62 3.3 SSE 11 13 6 7 1024.8 - 0.0
22/06:30pm 15.6 13.4 6.3 54 4.5 ESE 7 9 4 5 1024.5 - 0.0
22/06:00pm 17.2 15.1 5.6 46 5.6 NNW 6 7 3 4 1024.1 1024.2 0.0
22/05:30pm 19.7 16.7 4.2 36 7.4 NNW 9 9 5 5 1023.9 - 0.0
22/05:00pm 20.5 16.5 2.8 31 8.3 NNW 13 15 7 8 1023.7 - 0.0
22/04:30pm 21.9 17.9 0.8 24 9.6 NNW 11 17 6 9 1023.6 - 0.0
22/04:00pm 21.9 17.5 0.1 23 9.8 N 13 17 7 9 1023.4 - 0.0
22/03:30pm 22.7 17.8 2.0 25 9.7 N 17 26 9 14 1023.4 - 0.0
22/03:00pm 22.4 17.7 1.1 24 9.8 NNW 15 26 8 14 1023.6 1023.7 0.0
22/02:30pm 22.3 17.0 1.6 25 9.6 N 19 26 10 14 1023.8 - 0.0
22/02:00pm 22.0 16.6 2.4 27 9.3 NNE 20 28 11 15 1024.1 - 0.0
22/01:30pm 21.9 16.7 2.6 28 9.1 N 19 28 10 15 1024.4 - 0.0
22/01:00pm 21.4 16.4 3.7 31 8.5 N 19 28 10 15 1024.6 - 0.0
22/12:30pm 21.0 14.9 3.0 30 8.5 N 24 32 13 17 1025.0 - 0.0
22/12:00pm 20.5 14.7 2.4 30 8.4 N 22 33 12 18 1025.4 1025.5 0.0
22/11:30am 20.1 14.1 3.3 33 8.0 NNW 24 30 13 16 1025.7 - 0.0
22/11:00am 19.8 15.0 7.2 44 6.4 N 22 33 12 18 1026.3 - 0.0
22/10:30am 18.5 13.5 6.6 45 5.9 N 22 30 12 16 1026.8 - 0.0
22/10:00am 17.7 13.7 6.8 49 5.4 NNW 17 20 9 11 1027.1 - 0.0
22/09:30am 17.1 13.0 8.0 55 4.6 N 19 28 10 15 1027.3 - 0.0
22/09:00am 14.9 11.8 7.4 61 3.7 N 13 17 7 9 1027.4 1027.5 0.0
22/08:30am 12.3 8.4 7.3 71 2.4 N 17 22 9 12 1027.4 - 0.0
22/08:00am 10.1 6.0 6.4 78 1.7 NNE 17 20 9 11 1027.5 - 0.0
22/07:30am 7.8 4.3 5.6 86 1.0 NNE 13 17 7 9 1027.4 - 0.0
22/07:00am 5.8 2.1 4.6 92 0.5 NNE 13 15 7 8 1027.4 - 0.0
22/06:30am 4.3 0.4 3.6 95 0.3 NNE 13 15 7 8 1027.2 - 0.0
22/06:00am 3.7 -0.6 3.2 97 0.2 NNE 15 17 8 9 1027.1 1027.2 0.0
22/05:30am 2.7 -2.2 1.9 94 0.3 NNE 17 17 9 9 1026.9 - 0.0
22/05:00am 2.1 -1.7 1.6 96 0.2 NNE 11 11 6 6 1026.7 - 0.0
22/04:30am 2.5 -0.8 2.2 98 0.1 NNE 9 9 5 5 1026.7 - 0.0
22/04:00am 3.0 -0.3 2.5 96 0.2 NE 9 9 5 5 1026.7 - 0.0
22/03:30am 2.7 -0.6 2.2 96 0.2 NE 9 11 5 6 1026.5 - 0.0
22/03:14am 3.2 0.4 3.2 100 0.0 N 7 9 4 5 1026.7 - 0.0
22/03:00am 4.8 2.2 4.3 97 0.2 N 7 9 4 5 1026.7 1026.8 0.0
22/02:30am 4.5 1.8 3.8 95 0.3 N 7 9 4 5 1027.0 - 0.0
22/02:00am 5.7 2.4 4.8 94 0.4 NNE 11 13 6 7 1027.2 - 0.0
22/01:30am 5.9 2.2 4.7 92 0.5 NE 13 15 7 8 1027.5 - 0.0
22/01:00am 6.8 3.4 5.7 93 0.5 NE 13 13 7 7 1027.7 - 0.0
22/12:30am 6.2 3.0 5.3 94 0.4 NE 11 13 6 7 1027.7 - 0.0
22/12:00am 6.0 3.2 5.3 95 0.3 NE 9 9 5 5 1027.9 1028.0 0.0
 
Date/Time
CST
Temp
°C
App
Temp
°C
Dew
Point
Rel
Hum
%
Delta-T
°C
Wind Press
QNH
hPa
Press
MSL
hPa
Rain
since 9 am
mm
Dir
 
Spd
km/h
Gust
km/h
Spd
kts
Gust
kts
21/11:30pm 6.2 3.0 5.3 94 0.4 ENE 11 11 6 6 1028.0 - 0.0
21/11:00pm 6.2 3.1 5.5 95 0.3 ENE 11 13 6 7 1028.2 - 0.0
21/10:30pm 6.6 5.2 5.7 94 0.4 SSE 2 9 1 5 1028.6 - 0.0
21/10:00pm 6.7 5.8 6.0 95 0.3 CALM 0 0 0 0 1028.8 - 0.0
21/09:30pm 6.7 5.9 6.3 97 0.2 CALM 0 0 0 0 1029.0 - 0.0
21/09:00pm 6.3 5.3 5.6 95 0.3 CALM 0 0 0 0 1029.0 1029.1 0.0
21/08:30pm 7.0 6.1 5.9 93 0.5 CALM 0 0 0 0 1029.2 - 0.0
21/08:00pm 7.3 6.4 6.2 93 0.5 CALM 0 0 0 0 1029.1 - 0.0
21/07:30pm 8.1 7.2 6.1 87 0.9 CALM 0 0 0 0 1029.2 - 0.0
21/07:00pm 9.4 8.3 6.8 84 1.2 S 2 7 1 4 1028.9 - 0.0
21/06:30pm 10.3 8.3 7.1 80 1.5 S 7 11 4 6 1028.8 - 0.0
21/06:00pm 11.2 8.2 7.7 79 1.7 S 13 15 7 8 1028.7 1028.8 0.0
21/05:30pm 13.3 10.4 8.3 72 2.5 S 13 15 7 8 1028.6 - 0.0
21/05:00pm 15.7 13.3 5.4 50 4.9 ESE 7 9 4 5 1028.4 - 0.0
21/04:30pm 16.7 14.9 3.7 42 6.0 N 2 11 1 6 1028.4 - 0.0
21/04:00pm 16.8 14.3 4.7 44 5.7 NNE 7 13 4 7 1028.4 - 0.0
21/03:30pm 16.8 14.0 5.0 45 5.6 ENE 9 13 5 7 1028.6 - 0.0
21/03:00pm 16.9 13.8 5.4 46 5.5 NNE 11 17 6 9 1028.7 1028.8 0.0
21/02:30pm 16.7 14.6 5.7 48 5.3 E 6 11 3 6 1029.1 - 0.0
21/02:00pm 16.0 13.8 3.2 42 5.9 NNW 4 7 2 4 1029.6 - 0.0
21/01:30pm 16.2 13.7 4.7 46 5.4 E 7 11 4 6 1030.1 - 0.0
21/01:00pm 15.5 13.0 4.8 49 5.0 E 7 13 4 7 1030.4 - 0.0
21/12:30pm 15.0 12.8 5.2 52 4.6 WNW 6 9 3 5 1030.8 - 0.0
21/12:00pm 15.1 12.3 5.3 52 4.6 E 9 13 5 7 1031.3 1031.4 0.0
21/11:30am 14.7 11.0 4.2 49 4.9 E 13 17 7 9 1031.6 - 0.0
21/11:00am 14.8 11.5 4.4 49 4.8 E 11 17 6 9 1032.0 - 0.0
21/10:30am 14.0 10.8 4.9 54 4.2 E 11 15 6 8 1032.3 - 0.0
21/10:00am 13.6 9.5 4.4 53 4.2 E 15 19 8 10 1032.4 - 0.0
21/09:30am 13.0 9.7 4.7 57 3.8 ENE 11 17 6 9 1032.5 - 0.0
21/09:00am 11.9 9.3 5.9 66 2.8 E 9 11 5 6 1032.6 1032.7 0.0
21/08:30am 10.2 7.9 5.6 73 2.1 ESE 7 11 4 6 1032.4 - 0.0
21/08:00am 8.8 6.5 5.0 77 1.7 E 6 7 3 4 1031.9 - 0.0
21/07:30am 5.7 3.2 5.0 95 0.3 NE 7 7 4 4 1031.5 - 0.0
21/07:00am 0.9 -1.0 0.3 96 0.2 CALM 0 0 0 0 1031.3 - 0.0
21/06:30am -1.4 -3.6 -1.5 99 0.0 CALM 0 7 0 4 1031.2 - 0.0
21/06:03am -0.2 -2.2 -0.2 100 0.0 CALM 0 0 0 0 1030.9 - 0.0
21/06:00am -0.5 -2.6 -0.7 99 0.0 CALM 0 0 0 0 1030.8 1030.9 0.0
21/05:52am -0.8 - - - - CALM 0 0 0 0 1030.8 - 0.0
21/05:30am -0.6 - - - - CALM 0 0 0 0 1030.5 - 0.0
21/05:14am 0.2 - - - - CALM 0 0 0 0 1030.4 - 0.0
21/05:00am -0.1 - - - - CALM 0 0 0 0 1030.3 - 0.0
21/04:54am 0.0 - - - - CALM 0 0 0 0 1030.2 - 0.0
21/04:30am 0.0 - - - - CALM 0 0 0 0 1030.1 - 0.0
21/04:00am 1.0 -0.9 0.5 96 0.2 CALM 0 0 0 0 1030.0 - 0.0
21/03:30am 1.0 -0.9 0.5 96 0.2 CALM 0 0 0 0 1030.2 - 0.0
21/03:00am 1.4 -0.9 0.6 94 0.3 W 2 6 1 3 1030.0 1030.1 0.0
21/02:43am 1.7 -0.8 1.4 98 0.1 W 4 6 2 3 1030.1 - 0.0
21/02:41am 1.7 -0.4 1.4 98 0.1 WSW 2 6 1 3 1030.1 - 0.0
21/02:30am 1.5 -0.4 0.7 94 0.3 CALM 0 0 0 0 1030.2 - 0.0
21/02:19am 1.3 -0.5 1.0 98 0.1 CALM 0 0 0 0 1030.3 - 0.0
21/02:00am 3.2 1.6 2.4 94 0.3 CALM 0 0 0 0 1030.3 - 0.0
21/01:59am 3.3 1.7 2.5 94 0.3 CALM 0 0 0 0 1030.3 - 0.0
21/01:42am 2.7 1.1 2.2 96 0.2 CALM 0 0 0 0 1030.3 - 0.0
21/01:30am 3.4 1.8 2.4 93 0.4 CALM 0 0 0 0 1030.4 - 0.0
21/01:22am 3.3 1.8 2.8 97 0.2 CALM 0 0 0 0 1030.4 - 0.0
21/01:00am 3.4 1.8 2.6 94 0.3 CALM 0 0 0 0 1030.7 - 0.0
21/12:30am 3.1 1.4 2.1 93 0.4 CALM 0 6 0 3 1030.7 - 0.0
21/12:00am 2.7 0.9 1.4 91 0.5 CALM 0 0 0 0 1030.6 1030.7 0.0

Other Formats:

Comma delimited format used in spreadsheet applications
http://www.bom.gov.au/fwo/IDS60801/IDS60801.94821.axf

JavaScript Object Notation format (JSON) in row-major order
http://www.bom.gov.au/fwo/IDS60801/IDS60801.94821.json